createdAt,value
2018-02-08T00:02:07.019Z,98850.03
2018-02-08T00:04:37.702Z,98844.61
2018-02-08T00:07:08.417Z,98840.81
2018-02-08T00:09:39.075Z,98845.70
2018-02-08T00:12:09.758Z,98849.71
2018-02-08T00:14:41.263Z,98843.70
2018-02-08T00:17:12.394Z,98842.36
2018-02-08T00:19:43.130Z,98840.80
2018-02-08T00:22:22.423Z,98836.80
2018-02-08T00:24:53.135Z,98838.20
2018-02-08T00:27:24.653Z,98834.44
2018-02-08T00:30:03.132Z,98836.09
2018-02-08T00:32:34.218Z,98836.89
2018-02-08T00:35:04.975Z,98836.91
2018-02-08T00:37:35.770Z,98840.16
2018-02-08T00:40:06.552Z,98847.39
2018-02-08T00:42:37.882Z,98840.97
2018-02-08T00:45:09.712Z,98841.39
2018-02-08T00:47:40.976Z,98844.72
2018-02-08T00:50:12.267Z,98838.37
2018-02-08T00:52:44.192Z,98849.52
2018-02-08T00:55:14.838Z,98849.95
2018-02-08T00:57:46.014Z,98855.19
2018-02-08T01:00:16.963Z,98851.38
2018-02-08T01:02:48.491Z,98857.41
2018-02-08T01:05:19.759Z,98853.47
2018-02-08T01:07:50.430Z,98852.31
2018-02-08T01:10:21.706Z,98852.78
2018-02-08T01:12:52.951Z,98855.39
2018-02-08T01:15:24.277Z,98841.89
2018-02-08T01:17:55.187Z,98846.50
2018-02-08T01:20:26.079Z,98848.89
2018-02-08T01:22:57.103Z,98851.34
2018-02-08T01:25:28.878Z,98849.88
2018-02-08T01:28:00.764Z,98851.92
2018-02-08T01:30:32.326Z,98853.52
2018-02-08T01:33:04.043Z,98858.88
2018-02-08T01:35:35.454Z,98861.22
2018-02-08T01:38:07.019Z,98851.49
2018-02-08T01:40:38.759Z,98849.92
2018-02-08T01:43:10.150Z,98853.70
2018-02-08T01:45:41.868Z,98858.05
2018-02-08T01:48:13.598Z,98861.91
2018-02-08T01:50:45.103Z,98851.30
2018-02-08T01:53:16.921Z,98851.86
2018-02-08T01:55:48.450Z,98851.74
2018-02-08T01:58:19.785Z,98856.62
2018-02-08T02:00:51.182Z,98852.47
2018-02-08T02:03:22.361Z,98859.53
2018-02-08T02:05:53.267Z,98859.77
2018-02-08T02:08:24.789Z,98849.53
2018-02-08T02:10:56.362Z,98857.01
2018-02-08T02:13:27.201Z,98855.31
2018-02-08T02:15:58.748Z,98855.52
2018-02-08T02:18:30.216Z,98856.45
2018-02-08T02:21:01.670Z,98855.38
2018-02-08T02:23:32.867Z,98856.26
2018-02-08T02:26:04.749Z,98852.47
2018-02-08T02:28:35.958Z,98847.98
2018-02-08T02:31:07.246Z,98853.95
2018-02-08T02:33:38.730Z,98852.41
2018-02-08T02:36:10.104Z,98855.14
2018-02-08T02:38:41.921Z,98853.83
2018-02-08T02:41:13.859Z,98851.65
2018-02-08T02:43:45.114Z,98854.28
2018-02-08T02:46:16.857Z,98851.26
2018-02-08T02:48:47.762Z,98845.28
2018-02-08T02:51:19.336Z,98841.05
2018-02-08T02:53:50.556Z,98845.13
2018-02-08T02:56:21.787Z,98844.38
2018-02-08T02:58:53.674Z,98851.20
2018-02-08T03:01:24.754Z,98853.95
2018-02-08T03:03:56.717Z,98861.71
2018-02-08T03:06:27.921Z,98857.44
2018-02-08T03:08:59.934Z,98858.02
2018-02-08T03:11:31.234Z,98864.32
2018-02-08T03:14:02.096Z,98868.52
2018-02-08T03:16:33.551Z,98866.73
2018-02-08T03:19:05.550Z,98863.08
2018-02-08T03:21:37.171Z,98865.52
2018-02-08T03:24:08.992Z,98866.59
2018-02-08T03:26:40.822Z,98861.56
2018-02-08T03:29:12.202Z,98864.28
2018-02-08T03:31:43.788Z,98860.25
2018-02-08T03:34:15.529Z,98862.20
2018-02-08T03:36:47.242Z,98862.34
2018-02-08T03:39:18.909Z,98855.20
2018-02-08T03:41:50.248Z,98858.92
2018-02-08T03:44:21.950Z,98857.56
2018-02-08T03:46:53.549Z,98859.83
2018-02-08T03:49:24.374Z,98856.41
2018-02-08T03:51:55.879Z,98860.47
2018-02-08T03:54:27.113Z,98859.56
2018-02-08T03:56:58.308Z,98862.65
2018-02-08T03:59:29.618Z,98855.78
2018-02-08T04:02:01.228Z,98865.24
2018-02-08T04:04:32.702Z,98866.35
2018-02-08T04:07:03.970Z,98862.77
2018-02-08T04:09:35.307Z,98866.71
2018-02-08T04:12:06.155Z,98865.44
2018-02-08T04:14:37.872Z,98868.62
2018-02-08T04:17:09.043Z,98866.23
2018-02-08T04:19:40.261Z,98869.59
2018-02-08T04:22:11.957Z,98868.45
2018-02-08T04:24:43.457Z,98870.16
2018-02-08T04:27:14.366Z,98868.49
2018-02-08T04:29:45.186Z,98871.05
2018-02-08T04:32:16.942Z,98876.05
2018-02-08T04:34:48.375Z,98875.38
2018-02-08T04:37:19.577Z,98875.48
2018-02-08T04:42:03.290Z,98877.81
2018-02-08T04:45:42.622Z,98871.61
2018-02-08T04:48:14.273Z,98873.79
2018-02-08T04:50:45.813Z,98877.32
2018-02-08T04:53:17.408Z,98874.67
2018-02-08T04:55:48.605Z,98879.66
2018-02-08T04:58:20.208Z,98882.55
2018-02-08T05:04:12.610Z,98881.06
2018-02-08T05:06:43.831Z,98882.63
2018-02-08T05:09:15.198Z,98888.34
2018-02-08T05:11:47.077Z,98891.88
2018-02-08T05:14:18.866Z,98893.64
2018-02-08T05:16:50.554Z,98897.63
2018-02-08T05:19:21.970Z,98903.84
2018-02-08T05:21:53.826Z,98906.07
2018-02-08T05:24:25.150Z,98912.10
2018-02-08T05:26:56.262Z,98916.41
2018-02-08T05:29:27.960Z,98915.16
2018-02-08T05:31:59.466Z,98916.56
2018-02-08T05:34:30.311Z,98917.53
2018-02-08T05:37:02.127Z,98926.72
2018-02-08T05:39:33.962Z,98923.09
2018-02-08T05:42:05.251Z,98919.36
2018-02-08T05:44:36.712Z,98929.62
2018-02-08T05:47:08.718Z,98928.78
2018-02-08T05:49:40.482Z,98929.81
2018-02-08T05:52:12.184Z,98923.59
2018-02-08T05:54:43.283Z,98932.55
2018-02-08T05:57:14.748Z,98933.08
2018-02-08T05:59:45.611Z,98938.59
2018-02-08T06:02:16.934Z,98942.34
2018-02-08T06:04:47.861Z,98938.36
2018-02-08T06:07:19.263Z,98948.52
2018-02-08T06:09:51.303Z,98950.56
2018-02-08T06:12:22.678Z,98945.86
2018-02-08T06:14:53.582Z,98949.40
2018-02-08T06:17:24.954Z,98946.63
2018-02-08T06:19:56.299Z,98953.70
2018-02-08T06:22:27.226Z,98957.95
2018-02-08T06:24:58.686Z,98964.44
2018-02-08T06:27:29.577Z,98970.45
2018-02-08T06:30:00.453Z,98968.41
2018-02-08T06:32:31.300Z,98971.96
2018-02-08T06:35:02.467Z,98972.37
2018-02-08T06:37:33.341Z,98975.05
2018-02-08T06:40:04.722Z,98973.21
2018-02-08T06:42:36.258Z,98972.80
2018-02-08T06:45:08.471Z,98974.41
2018-02-08T06:47:39.476Z,98976.23
2018-02-08T06:50:11.143Z,98975.36
2018-02-08T06:52:42.690Z,98974.81
2018-02-08T06:55:18.648Z,98976.53
2018-02-08T06:57:50.206Z,98979.05
2018-02-08T07:00:21.847Z,98978.30
2018-02-08T07:02:52.705Z,98983.59
2018-02-08T07:05:23.574Z,98978.84
2018-02-08T07:07:59.425Z,98989.16
2018-02-08T07:10:30.632Z,98988.20
2018-02-08T07:13:01.610Z,98993.07
2018-02-08T07:15:32.895Z,98994.63
2018-02-08T07:18:03.828Z,98994.05
2018-02-08T07:20:34.708Z,98996.58
2018-02-08T07:23:05.904Z,98999.62
2018-02-08T07:25:36.694Z,98999.50
2018-02-08T07:28:07.544Z,98996.86
2018-02-08T07:30:38.362Z,98996.43
2018-02-08T07:33:09.299Z,98998.45
2018-02-08T07:35:40.147Z,99000.13
2018-02-08T07:38:11.387Z,98998.91
2018-02-08T07:40:42.261Z,99002.28
2018-02-08T07:43:13.759Z,99005.90
2018-02-08T07:45:44.630Z,99011.88
2018-02-08T07:48:15.441Z,99008.95
2018-02-08T07:50:46.739Z,99011.13
2018-02-08T07:53:18.350Z,99011.97
2018-02-08T07:55:49.698Z,99016.28
2018-02-08T07:58:20.698Z,99011.45
2018-02-08T08:00:51.834Z,99017.95
2018-02-08T08:03:22.686Z,99019.84
2018-02-08T08:05:53.559Z,99018.94
2018-02-08T08:08:24.814Z,99017.13
2018-02-08T08:10:55.834Z,99013.89
2018-02-08T08:13:27.290Z,99013.25
2018-02-08T08:15:58.128Z,99016.11
2018-02-08T08:18:28.986Z,99022.00
2018-02-08T08:21:00.628Z,99015.63
2018-02-08T08:23:31.547Z,99022.92
2018-02-08T08:26:02.438Z,99027.05
2018-02-08T08:28:33.242Z,99021.64
2018-02-08T08:31:04.038Z,99030.16
2018-02-08T08:33:34.850Z,99027.59
2018-02-08T08:36:05.854Z,99021.95
2018-02-08T08:38:36.737Z,99031.51
2018-02-08T08:41:07.930Z,99036.49
2018-02-08T08:43:38.750Z,99035.09
2018-02-08T08:46:09.534Z,99036.52
2018-02-08T08:51:21.245Z,99035.64
2018-02-08T08:53:52.916Z,99035.95
2018-02-08T08:56:23.746Z,99041.83
2018-02-08T08:58:54.823Z,99042.98
2018-02-08T09:01:25.698Z,99044.83
2018-02-08T09:03:56.962Z,99046.33
2018-02-08T09:06:27.862Z,99052.05
2018-02-08T09:08:58.999Z,99047.59
2018-02-08T09:11:29.908Z,99046.20
2018-02-08T09:14:00.772Z,99057.34
2018-02-08T09:16:32.176Z,99057.58
2018-02-08T09:19:03.420Z,99055.36
2018-02-08T09:21:34.812Z,99062.64
2018-02-08T09:24:05.617Z,99064.15
2018-02-08T09:26:36.423Z,99069.09
2018-02-08T09:29:07.249Z,99071.24
2018-02-08T09:31:38.107Z,99068.61
2018-02-08T09:34:09.267Z,99070.21
2018-02-08T09:36:40.256Z,99070.36
2018-02-08T09:39:11.419Z,99074.20
2018-02-08T09:41:42.310Z,99065.05
2018-02-08T09:44:13.129Z,99068.36
2018-02-08T09:46:44.082Z,99082.15
2018-02-08T09:49:14.848Z,99076.05
2018-02-08T09:51:45.657Z,99082.88
2018-02-08T09:54:16.470Z,99085.06
2018-02-08T09:56:47.369Z,99082.23
2018-02-08T09:59:18.292Z,99083.52
2018-02-08T10:01:49.359Z,99086.06
2018-02-08T10:04:20.209Z,99086.28
2018-02-08T10:06:51.088Z,99084.72
2018-02-08T10:09:22.157Z,99084.91
2018-02-08T10:11:52.956Z,99084.93
2018-02-08T10:14:23.985Z,99085.44
2018-02-08T10:16:54.780Z,99083.07
2018-02-08T10:19:25.663Z,99081.69
2018-02-08T10:21:56.576Z,99082.98
2018-02-08T10:24:27.929Z,99080.17
2018-02-08T10:26:58.700Z,99076.24
2018-02-08T10:29:29.745Z,99079.00
2018-02-08T10:32:00.612Z,99073.84
2018-02-08T10:34:31.413Z,99077.80
2018-02-08T10:37:02.308Z,99080.30
2018-02-08T10:39:33.120Z,99075.81
2018-02-08T10:42:04.026Z,99074.41
2018-02-08T10:44:35.056Z,99080.39
2018-02-08T10:47:06.552Z,99074.52
2018-02-08T10:49:37.654Z,99073.44
2018-02-08T10:52:08.440Z,99075.56
2018-02-08T10:54:39.190Z,99071.24
2018-02-08T10:57:10.288Z,99070.90
2018-02-08T10:59:41.104Z,99066.70
2018-02-08T11:02:11.894Z,99065.10
2018-02-08T11:04:42.764Z,99064.92
2018-02-08T11:07:13.604Z,99071.75
2018-02-08T11:09:44.400Z,99069.59
2018-02-08T11:12:15.537Z,99067.61
2018-02-08T11:14:46.338Z,99068.92
2018-02-08T11:17:17.112Z,99068.88
2018-02-08T11:19:48.308Z,99060.77
2018-02-08T11:22:19.082Z,99068.23
2018-02-08T11:24:49.798Z,99058.81
2018-02-08T11:27:20.991Z,99053.98
2018-02-08T11:29:51.757Z,99058.55
2018-02-08T11:32:23.040Z,99051.03
2018-02-08T11:34:53.784Z,99058.88
2018-02-08T11:37:24.560Z,99056.36
2018-02-08T11:39:56.304Z,99051.56
2018-02-08T11:42:27.146Z,99048.22
2018-02-08T11:44:57.960Z,99044.83
2018-02-08T11:47:28.768Z,99044.50
2018-02-08T11:49:59.588Z,99049.05
2018-02-08T11:52:30.357Z,99040.00
2018-02-08T11:55:01.455Z,99045.35
2018-02-08T11:57:32.257Z,99039.29
2018-02-08T12:00:03.145Z,99042.28
2018-02-08T12:02:34.176Z,99049.18
2018-02-08T12:05:04.993Z,99052.41
2018-02-08T12:07:36.124Z,99053.64
2018-02-08T12:10:06.957Z,99048.53
2018-02-08T12:12:37.713Z,99048.55
2018-02-08T12:15:08.916Z,99049.73
2018-02-08T12:17:39.754Z,99054.11
2018-02-08T12:20:10.553Z,99049.11
2018-02-08T12:22:42.336Z,99050.45
2018-02-08T12:25:13.205Z,99048.84
2018-02-08T12:27:43.949Z,99051.01
2018-02-08T12:30:15.038Z,99046.99
2018-02-08T12:32:45.856Z,99045.69
2018-02-08T12:35:16.696Z,99044.74
2018-02-08T12:37:47.763Z,99046.42
2018-02-08T12:40:18.604Z,99045.34
2018-02-08T12:42:49.698Z,99043.66
2018-02-08T12:45:20.522Z,99047.42
2018-02-08T12:47:51.344Z,99046.51
2018-02-08T12:50:22.563Z,99040.04
2018-02-08T12:52:53.427Z,99039.80
2018-02-08T12:55:24.736Z,99032.45
2018-02-08T12:58:02.375Z,99030.79
2018-02-08T13:00:33.626Z,99031.64
2018-02-08T13:03:05.115Z,99024.06
2018-02-08T13:05:35.969Z,99021.52
2018-02-08T13:08:06.784Z,99022.06
2018-02-08T13:10:38.240Z,99021.09
2018-02-08T13:13:09.124Z,99023.02
2018-02-08T13:15:39.991Z,99017.02
2018-02-08T13:18:11.044Z,99016.67
2018-02-08T13:20:41.880Z,99012.25
2018-02-08T13:23:12.785Z,99015.59
2018-02-08T13:25:43.924Z,99018.30
2018-02-08T13:28:14.924Z,99018.23
2018-02-08T13:30:46.097Z,99013.84
2018-02-08T13:33:16.844Z,99011.16
2018-02-08T13:35:47.680Z,99006.07
2018-02-08T13:38:18.699Z,99011.94
2018-02-08T13:40:49.825Z,99020.66
2018-02-08T13:43:20.704Z,99016.56
2018-02-08T13:45:52.573Z,99017.94
2018-02-08T13:48:23.650Z,99016.22
2018-02-08T13:50:54.758Z,99021.46
2018-02-08T13:53:26.528Z,99025.86
2018-02-08T13:55:58.187Z,99026.21
2018-02-08T13:58:29.335Z,99026.78
2018-02-08T14:01:00.350Z,99020.94
2018-02-08T14:03:31.656Z,99023.66
2018-02-08T14:06:02.384Z,99026.95
2018-02-08T14:08:33.232Z,99026.45
2018-02-08T14:11:04.216Z,99023.16
2018-02-08T14:13:35.018Z,99020.09
2018-02-08T14:16:05.945Z,99024.48
2018-02-08T14:18:37.154Z,99028.16
2018-02-08T14:21:08.329Z,99031.91
2018-02-08T14:23:39.476Z,99032.55
2018-02-08T14:26:10.245Z,99026.66
2018-02-08T14:28:41.025Z,99028.68
2018-02-08T14:31:12.096Z,99023.52
2018-02-08T14:33:43.460Z,99030.30
2018-02-08T14:36:14.244Z,99021.59
2018-02-08T14:38:45.400Z,99022.80
2018-02-08T14:41:16.425Z,99021.29
2018-02-08T14:43:47.255Z,99024.39
2018-02-08T14:46:18.346Z,99022.14
2018-02-08T14:48:49.186Z,99020.90
2018-02-08T14:51:19.976Z,99025.11
2018-02-08T14:53:55.220Z,99021.83
2018-02-08T14:56:25.983Z,99026.00
2018-02-08T14:58:57.076Z,99022.54
2018-02-08T15:01:27.834Z,99027.04
2018-02-08T15:03:58.705Z,99024.55
2018-02-08T15:06:29.914Z,99033.35
2018-02-08T15:09:00.768Z,99029.41
2018-02-08T15:11:34.107Z,99033.47
2018-02-08T15:14:05.220Z,99035.97
2018-02-08T15:16:36.087Z,99029.78
2018-02-08T15:19:06.960Z,99023.54
2018-02-08T15:21:38.629Z,99028.28
2018-02-08T15:24:09.449Z,99028.36
2018-02-08T15:26:40.224Z,99032.32
2018-02-08T15:29:11.346Z,99033.16
2018-02-08T15:31:42.158Z,99035.81
2018-02-08T15:34:13.076Z,99033.09
2018-02-08T15:36:44.165Z,99034.84
2018-02-08T15:39:15.010Z,99033.27
2018-02-08T15:41:45.883Z,99037.09
2018-02-08T15:44:16.640Z,99037.80
2018-02-08T15:46:47.572Z,99039.70
2018-02-08T15:49:18.713Z,99035.36
2018-02-08T15:51:49.618Z,99034.58
2018-02-08T15:54:20.836Z,99042.06
2018-02-08T15:56:52.078Z,99041.16
2018-02-08T15:59:22.857Z,99035.06
2018-02-08T16:01:53.708Z,99042.28
2018-02-08T16:04:24.814Z,99041.34
2018-02-08T16:06:56.303Z,99037.23
2018-02-08T16:09:27.191Z,99036.35
2018-02-08T16:11:58.351Z,99037.25
2018-02-08T16:14:29.055Z,99039.28
2018-02-08T16:17:00.174Z,99044.20
2018-02-08T16:19:30.981Z,99044.18
2018-02-08T16:22:01.895Z,99036.25
2018-02-08T16:24:33.012Z,99043.04
2018-02-08T16:27:03.841Z,99043.91
2018-02-08T16:29:34.789Z,99038.86
2018-02-08T16:32:05.936Z,99047.38
2018-02-08T16:34:36.734Z,99045.03
2018-02-08T16:37:07.600Z,99042.25
2018-02-08T16:39:38.794Z,99041.19
2018-02-08T16:42:09.632Z,99043.84
2018-02-08T16:44:40.460Z,99043.72
2018-02-08T16:47:11.954Z,99042.83
2018-02-08T16:49:42.768Z,99036.34
2018-02-08T16:52:14.036Z,99038.08
2018-02-08T16:54:45.776Z,99040.41
2018-02-08T16:57:16.706Z,99040.39
2018-02-08T16:59:47.784Z,99041.06
2018-02-08T17:02:18.625Z,99028.70
2018-02-08T17:04:49.684Z,99035.59
2018-02-08T17:07:20.796Z,99041.77
2018-02-08T17:09:52.088Z,99040.88
2018-02-08T17:12:22.981Z,99048.81
2018-02-08T17:14:54.088Z,99047.30
2018-02-08T17:17:24.892Z,99046.27
2018-02-08T17:19:55.944Z,99049.70
2018-02-08T17:22:28.049Z,99054.73
2018-02-08T17:24:58.904Z,99049.05
2018-02-08T17:27:29.817Z,99053.80
2018-02-08T17:30:00.556Z,99060.77
2018-02-08T17:32:31.789Z,99058.51
2018-02-08T17:35:03.531Z,99059.47
2018-02-08T17:37:35.453Z,99062.00
2018-02-08T17:40:07.053Z,99055.02
2018-02-08T17:42:38.224Z,99055.55
2018-02-08T17:45:09.037Z,99051.62
2018-02-08T17:47:41.173Z,99052.58
2018-02-08T17:50:12.340Z,99061.81
2018-02-08T17:52:43.137Z,99057.27
2018-02-08T17:55:14.001Z,99056.25
2018-02-08T17:57:45.120Z,99059.83
2018-02-08T18:00:16.933Z,99056.11
2018-02-08T18:02:47.889Z,99054.63
2018-02-08T18:05:19.056Z,99053.53
2018-02-08T18:07:49.995Z,99049.77
2018-02-08T18:10:20.842Z,99053.48
2018-02-08T18:12:52.248Z,99050.39
2018-02-08T18:15:23.063Z,99053.27
2018-02-08T18:17:54.128Z,99051.30
2018-02-08T18:20:25.013Z,99055.64
2018-02-08T18:22:55.852Z,99057.73
2018-02-08T18:25:27.037Z,99049.98
2018-02-08T18:27:57.811Z,99057.86
2018-02-08T18:30:28.659Z,99055.81
2018-02-08T18:32:59.781Z,99053.94
2018-02-08T18:35:30.634Z,99054.39
2018-02-08T18:38:01.447Z,99055.66
2018-02-08T18:40:32.359Z,99057.13
2018-02-08T18:43:03.221Z,99054.95
2018-02-08T18:45:34.288Z,99058.09
2018-02-08T18:48:05.337Z,99054.23
2018-02-08T18:50:36.113Z,99052.55
2018-02-08T18:53:08.662Z,99051.91
2018-02-08T18:55:39.568Z,99051.11
2018-02-08T18:58:10.424Z,99044.54
2018-02-08T19:00:41.589Z,99041.95
2018-02-08T19:03:12.415Z,99038.00
2018-02-08T19:05:43.128Z,99046.88
2018-02-08T19:08:14.240Z,99043.62
2018-02-08T19:10:45.757Z,99041.67
2018-02-08T19:13:16.758Z,99040.83
2018-02-08T19:15:47.553Z,99037.51
2018-02-08T19:18:18.356Z,99037.20
2018-02-08T19:20:49.233Z,99033.22
2018-02-08T19:23:20.164Z,99035.23
2018-02-08T19:25:51.071Z,99041.52
2018-02-08T19:28:22.407Z,99035.16
2018-02-08T19:30:53.204Z,99040.87
2018-02-08T19:33:24.102Z,99036.64
2018-02-08T19:35:55.440Z,99040.02
2018-02-08T19:38:26.276Z,99035.02
2018-02-08T19:40:57.085Z,99044.09
2018-02-08T19:43:28.160Z,99041.31
2018-02-08T19:45:58.977Z,99041.30
2018-02-08T19:48:30.170Z,99038.61
2018-02-08T19:51:00.952Z,99042.80
2018-02-08T19:53:32.047Z,99042.60
2018-02-08T19:56:03.261Z,99043.70
2018-02-08T19:58:34.088Z,99045.34
2018-02-08T20:01:04.936Z,99038.95
2018-02-08T20:03:36.014Z,99040.63
2018-02-08T20:06:06.867Z,99040.26
2018-02-08T20:08:37.669Z,99039.20
2018-02-08T20:11:08.480Z,99036.27
2018-02-08T20:13:39.356Z,99036.62
2018-02-08T20:16:10.237Z,99035.09
2018-02-08T20:18:41.308Z,99033.69
2018-02-08T20:21:12.197Z,99036.09
2018-02-08T20:23:43.369Z,99029.08
2018-02-08T20:26:14.208Z,99027.31
2018-02-08T20:28:45.358Z,99035.82
2018-02-08T20:31:16.392Z,99037.98
2018-02-08T20:33:47.161Z,99040.42
2018-02-08T20:36:18.024Z,99043.82
2018-02-08T20:38:48.828Z,99041.28
2018-02-08T20:41:19.656Z,99043.57
2018-02-08T20:43:50.741Z,99046.89
2018-02-08T20:46:21.676Z,99052.38
2018-02-08T20:48:52.496Z,99036.22
2018-02-08T20:51:23.708Z,99035.55
2018-02-08T20:53:54.585Z,99034.28
2018-02-08T20:56:25.324Z,99029.19
2018-02-08T20:58:56.240Z,99025.42
2018-02-08T21:01:27.130Z,99027.73
2018-02-08T21:03:58.275Z,99017.27
2018-02-08T21:06:29.128Z,99020.88
2018-02-08T21:08:59.956Z,99023.60
2018-02-08T21:11:31.030Z,99022.23
2018-02-08T21:14:01.909Z,99016.46
2018-02-08T21:16:32.753Z,99016.25
2018-02-08T21:19:03.888Z,99015.61
2018-02-08T21:21:35.071Z,99016.56
2018-02-08T21:24:05.864Z,99010.02
2018-02-08T21:26:36.920Z,99014.90
2018-02-08T21:29:07.776Z,99009.86
2018-02-08T21:31:38.623Z,99009.53
2018-02-08T21:34:09.760Z,99003.25
2018-02-08T21:36:40.615Z,98999.86
2018-02-08T21:39:11.673Z,98997.58
2018-02-08T21:41:42.487Z,99000.06
2018-02-08T21:44:13.403Z,98999.96
2018-02-08T21:46:44.604Z,98990.94
2018-02-08T21:49:16.440Z,98986.96
2018-02-08T21:51:47.280Z,98972.27
2018-02-08T21:54:18.136Z,98974.53
2018-02-08T21:56:48.921Z,98972.66
2018-02-08T21:59:19.672Z,98967.47
2018-02-08T22:01:50.832Z,98966.24
2018-02-08T22:04:21.692Z,98973.82
2018-02-08T22:06:52.513Z,98964.27
2018-02-08T22:09:23.632Z,98968.76
2018-02-08T22:11:54.474Z,98964.42
2018-02-08T22:14:25.648Z,98963.06
2018-02-08T22:16:56.510Z,98957.95
2018-02-08T22:19:27.384Z,98965.64
2018-02-08T22:21:59.333Z,98970.27
2018-02-08T22:24:30.097Z,98974.30
2018-02-08T22:27:00.912Z,98970.37
2018-02-08T22:29:32.728Z,98970.41
2018-02-08T22:32:03.534Z,98962.53
2018-02-08T22:34:34.356Z,98967.82
2018-02-08T22:37:06.149Z,98968.65
2018-02-08T22:39:36.904Z,98974.56
2018-02-08T22:42:07.996Z,98970.74
2018-02-08T22:44:38.832Z,98975.83
2018-02-08T22:47:09.698Z,98981.87
2018-02-08T22:49:41.074Z,98979.99
2018-02-08T22:52:11.899Z,98980.98
2018-02-08T22:54:42.628Z,98979.42
2018-02-08T22:57:13.704Z,98979.73
2018-02-08T22:59:44.590Z,98981.42
2018-02-08T23:02:15.425Z,98978.46
2018-02-08T23:04:46.520Z,98977.73
2018-02-08T23:07:17.357Z,98981.27
2018-02-08T23:09:48.200Z,98972.09
2018-02-08T23:12:19.369Z,98968.55
2018-02-08T23:14:50.228Z,98966.47
2018-02-08T23:17:22.166Z,98965.83
2018-02-08T23:19:52.971Z,98963.78
2018-02-08T23:22:23.829Z,98968.22
2018-02-08T23:24:54.916Z,98964.55
2018-02-08T23:27:25.769Z,98966.16
2018-02-08T23:29:57.968Z,98965.83
2018-02-08T23:32:29.764Z,98967.07
2018-02-08T23:35:00.565Z,98967.06
2018-02-08T23:37:31.428Z,98959.23
2018-02-08T23:40:02.865Z,98968.00
2018-02-08T23:42:33.746Z,98971.44
2018-02-08T23:45:04.856Z,98971.95
2018-02-08T23:47:36.632Z,98979.53
2018-02-08T23:50:07.944Z,98977.47
2018-02-08T23:52:39.452Z,98977.07
2018-02-08T23:55:10.192Z,98977.98
2018-02-08T23:57:40.956Z,98974.97
